sensor_id;sensor_type;location;lat;lon;timestamp;temperature;humidity
66343;DHT22;53144;51.524;5.080;2023-08-08T00:00:37;13.78;89.32
66343;DHT22;53144;51.524;5.080;2023-08-08T00:03:03;13.76;89.24
66343;DHT22;53144;51.524;5.080;2023-08-08T00:05:28;13.73;89.59
66343;DHT22;53144;51.524;5.080;2023-08-08T00:07:54;13.73;90.31
66343;DHT22;53144;51.524;5.080;2023-08-08T00:10:19;13.79;89.54
66343;DHT22;53144;51.524;5.080;2023-08-08T00:12:44;13.79;90.02
66343;DHT22;53144;51.524;5.080;2023-08-08T00:15:10;13.72;90.52
66343;DHT22;53144;51.524;5.080;2023-08-08T00:17:35;13.75;89.98
66343;DHT22;53144;51.524;5.080;2023-08-08T00:20:01;13.83;90.08
66343;DHT22;53144;51.524;5.080;2023-08-08T00:22:27;13.86;90.46
66343;DHT22;53144;51.524;5.080;2023-08-08T00:24:52;13.98;89.15
66343;DHT22;53144;51.524;5.080;2023-08-08T00:27:17;13.99;89.71
66343;DHT22;53144;51.524;5.080;2023-08-08T00:29:42;14.05;88.80
66343;DHT22;53144;51.524;5.080;2023-08-08T00:32:08;14.05;88.68
66343;DHT22;53144;51.524;5.080;2023-08-08T00:34:33;14.08;88.82
66343;DHT22;53144;51.524;5.080;2023-08-08T00:36:59;14.10;88.85
66343;DHT22;53144;51.524;5.080;2023-08-08T00:39:24;14.12;88.82
66343;DHT22;53144;51.524;5.080;2023-08-08T00:41:49;14.09;88.36
66343;DHT22;53144;51.524;5.080;2023-08-08T00:44:15;14.14;88.30
66343;DHT22;53144;51.524;5.080;2023-08-08T00:46:40;14.16;88.61
66343;DHT22;53144;51.524;5.080;2023-08-08T00:49:06;14.13;88.64
66343;DHT22;53144;51.524;5.080;2023-08-08T00:51:32;14.13;88.58
66343;DHT22;53144;51.524;5.080;2023-08-08T00:53:57;14.08;89.31
66343;DHT22;53144;51.524;5.080;2023-08-08T00:56:22;14.10;89.66
66343;DHT22;53144;51.524;5.080;2023-08-08T00:58:48;14.20;88.83
66343;DHT22;53144;51.524;5.080;2023-08-08T01:01:15;14.13;89.78
66343;DHT22;53144;51.524;5.080;2023-08-08T01:03:42;14.10;89.75
66343;DHT22;53144;51.524;5.080;2023-08-08T01:06:31;14.12;88.97
66343;DHT22;53144;51.524;5.080;2023-08-08T01:09:13;14.09;89.41
66343;DHT22;53144;51.524;5.080;2023-08-08T01:11:39;14.10;89.25
66343;DHT22;53144;51.524;5.080;2023-08-08T01:14:06;14.06;89.52
66343;DHT22;53144;51.524;5.080;2023-08-08T01:16:33;14.09;89.40
66343;DHT22;53144;51.524;5.080;2023-08-08T01:18:58;14.05;89.45
66343;DHT22;53144;51.524;5.080;2023-08-08T01:21:26;14.05;90.14
66343;DHT22;53144;51.524;5.080;2023-08-08T01:23:56;14.05;90.00
66343;DHT22;53144;51.524;5.080;2023-08-08T01:26:22;14.10;89.82
66343;DHT22;53144;51.524;5.080;2023-08-08T01:28:47;14.02;89.95
66343;DHT22;53144;51.524;5.080;2023-08-08T01:31:13;14.06;89.66
66343;DHT22;53144;51.524;5.080;2023-08-08T01:33:38;14.06;90.02
66343;DHT22;53144;51.524;5.080;2023-08-08T01:36:44;14.00;90.32
66343;DHT22;53144;51.524;5.080;2023-08-08T01:39:14;13.78;91.14
66343;DHT22;53144;51.524;5.080;2023-08-08T01:41:42;13.76;91.64
66343;DHT22;53144;51.524;5.080;2023-08-08T01:44:10;13.73;91.81
66343;DHT22;53144;51.524;5.080;2023-08-08T01:46:36;13.73;91.73
66343;DHT22;53144;51.524;5.080;2023-08-08T01:49:03;13.61;92.28
66343;DHT22;53144;51.524;5.080;2023-08-08T01:51:29;13.66;91.79
66343;DHT22;53144;51.524;5.080;2023-08-08T01:53:54;13.65;92.07
66343;DHT22;53144;51.524;5.080;2023-08-08T01:56:19;13.57;92.28
66343;DHT22;53144;51.524;5.080;2023-08-08T01:58:45;13.59;92.33
66343;DHT22;53144;51.524;5.080;2023-08-08T02:01:10;13.62;92.56
66343;DHT22;53144;51.524;5.080;2023-08-08T02:03:35;13.63;92.41
66343;DHT22;53144;51.524;5.080;2023-08-08T02:06:01;13.62;92.72
66343;DHT22;53144;51.524;5.080;2023-08-08T02:08:26;13.65;92.72
66343;DHT22;53144;51.524;5.080;2023-08-08T02:10:51;13.66;92.81
66343;DHT22;53144;51.524;5.080;2023-08-08T02:13:17;13.69;93.10
66343;DHT22;53144;51.524;5.080;2023-08-08T02:15:42;13.73;93.09
66343;DHT22;53144;51.524;5.080;2023-08-08T02:18:07;13.78;92.71
66343;DHT22;53144;51.524;5.080;2023-08-08T02:20:34;13.72;93.42
66343;DHT22;53144;51.524;5.080;2023-08-08T02:23:00;13.75;93.36
66343;DHT22;53144;51.524;5.080;2023-08-08T02:25:25;13.72;93.79
66343;DHT22;53144;51.524;5.080;2023-08-08T02:27:51;13.85;93.43
66343;DHT22;53144;51.524;5.080;2023-08-08T02:30:16;13.79;94.56
66343;DHT22;53144;51.524;5.080;2023-08-08T02:32:41;13.83;94.37
66343;DHT22;53144;51.524;5.080;2023-08-08T02:35:08;13.83;94.31
66343;DHT22;53144;51.524;5.080;2023-08-08T02:37:33;13.78;95.36
66343;DHT22;53144;51.524;5.080;2023-08-08T02:39:58;13.79;94.60
66343;DHT22;53144;51.524;5.080;2023-08-08T02:42:24;13.73;95.02
66343;DHT22;53144;51.524;5.080;2023-08-08T02:44:49;13.76;94.89
66343;DHT22;53144;51.524;5.080;2023-08-08T02:47:15;13.76;94.97
66343;DHT22;53144;51.524;5.080;2023-08-08T02:49:40;13.73;94.77
66343;DHT22;53144;51.524;5.080;2023-08-08T02:52:07;13.79;94.57
66343;DHT22;53144;51.524;5.080;2023-08-08T02:54:32;13.75;94.90
66343;DHT22;53144;51.524;5.080;2023-08-08T02:56:57;13.73;95.53
66343;DHT22;53144;51.524;5.080;2023-08-08T02:59:23;13.76;94.88
66343;DHT22;53144;51.524;5.080;2023-08-08T03:01:48;13.76;95.02
66343;DHT22;53144;51.524;5.080;2023-08-08T03:04:14;13.75;95.17
66343;DHT22;53144;51.524;5.080;2023-08-08T03:06:40;13.85;94.84
66343;DHT22;53144;51.524;5.080;2023-08-08T03:09:05;13.78;95.45
66343;DHT22;53144;51.524;5.080;2023-08-08T03:11:30;13.78;95.37
66343;DHT22;53144;51.524;5.080;2023-08-08T03:13:56;13.78;95.27
66343;DHT22;53144;51.524;5.080;2023-08-08T03:16:21;13.73;95.78
66343;DHT22;53144;51.524;5.080;2023-08-08T03:18:47;13.83;95.65
66343;DHT22;53144;51.524;5.080;2023-08-08T03:21:12;13.83;95.48
66343;DHT22;53144;51.524;5.080;2023-08-08T03:23:38;13.72;96.14
66343;DHT22;53144;51.524;5.080;2023-08-08T03:26:03;13.73;95.96
66343;DHT22;53144;51.524;5.080;2023-08-08T03:28:29;13.63;96.20
66343;DHT22;53144;51.524;5.080;2023-08-08T03:30:54;13.61;96.25
66343;DHT22;53144;51.524;5.080;2023-08-08T03:33:19;13.55;96.66
66343;DHT22;53144;51.524;5.080;2023-08-08T03:35:45;13.54;96.58
66343;DHT22;53144;51.524;5.080;2023-08-08T03:38:10;13.57;96.61
66343;DHT22;53144;51.524;5.080;2023-08-08T03:40:36;13.48;96.95
66343;DHT22;53144;51.524;5.080;2023-08-08T03:43:01;13.48;96.83
66343;DHT22;53144;51.524;5.080;2023-08-08T03:45:27;13.45;96.68
66343;DHT22;53144;51.524;5.080;2023-08-08T03:47:52;13.45;96.73
66343;DHT22;53144;51.524;5.080;2023-08-08T03:50:18;13.40;96.91
66343;DHT22;53144;51.524;5.080;2023-08-08T03:52:43;13.40;96.86
66343;DHT22;53144;51.524;5.080;2023-08-08T03:55:09;13.37;97.09
66343;DHT22;53144;51.524;5.080;2023-08-08T03:57:34;13.31;97.37
66343;DHT22;53144;51.524;5.080;2023-08-08T03:59:59;13.28;97.42
66343;DHT22;53144;51.524;5.080;2023-08-08T04:02:25;13.34;97.05
66343;DHT22;53144;51.524;5.080;2023-08-08T04:04:50;13.21;97.22
66343;DHT22;53144;51.524;5.080;2023-08-08T04:07:16;13.18;97.75
66343;DHT22;53144;51.524;5.080;2023-08-08T04:09:41;13.20;97.49
66343;DHT22;53144;51.524;5.080;2023-08-08T04:12:07;13.24;97.16
66343;DHT22;53144;51.524;5.080;2023-08-08T04:14:33;13.17;97.44
66343;DHT22;53144;51.524;5.080;2023-08-08T04:16:58;13.08;97.53
66343;DHT22;53144;51.524;5.080;2023-08-08T04:19:24;13.08;97.84
66343;DHT22;53144;51.524;5.080;2023-08-08T04:21:49;13.07;97.66
66343;DHT22;53144;51.524;5.080;2023-08-08T04:24:15;13.04;97.82
66343;DHT22;53144;51.524;5.080;2023-08-08T04:26:40;13.07;97.72
66343;DHT22;53144;51.524;5.080;2023-08-08T04:29:05;13.06;97.50
66343;DHT22;53144;51.524;5.080;2023-08-08T04:31:31;13.06;97.39
66343;DHT22;53144;51.524;5.080;2023-08-08T04:33:56;12.96;97.84
66343;DHT22;53144;51.524;5.080;2023-08-08T04:36:26;12.90;98.24
66343;DHT22;53144;51.524;5.080;2023-08-08T04:38:51;12.96;97.90
66343;DHT22;53144;51.524;5.080;2023-08-08T04:41:17;12.91;98.08
66343;DHT22;53144;51.524;5.080;2023-08-08T04:43:42;12.91;98.19
66343;DHT22;53144;51.524;5.080;2023-08-08T04:46:07;12.94;98.15
66343;DHT22;53144;51.524;5.080;2023-08-08T04:48:33;12.94;98.03
66343;DHT22;53144;51.524;5.080;2023-08-08T04:50:58;13.01;97.65
66343;DHT22;53144;51.524;5.080;2023-08-08T04:53:23;13.03;97.31
66343;DHT22;53144;51.524;5.080;2023-08-08T04:55:49;13.04;97.59
66343;DHT22;53144;51.524;5.080;2023-08-08T04:58:14;13.01;97.69
66343;DHT22;53144;51.524;5.080;2023-08-08T05:00:39;12.97;97.85
66343;DHT22;53144;51.524;5.080;2023-08-08T05:03:05;12.99;97.92
66343;DHT22;53144;51.524;5.080;2023-08-08T05:05:30;13.03;97.56
66343;DHT22;53144;51.524;5.080;2023-08-08T05:07:56;13.04;97.91
66343;DHT22;53144;51.524;5.080;2023-08-08T05:10:21;12.99;97.99
66343;DHT22;53144;51.524;5.080;2023-08-08T05:12:46;13.06;97.70
66343;DHT22;53144;51.524;5.080;2023-08-08T05:15:12;13.14;97.43
66343;DHT22;53144;51.524;5.080;2023-08-08T05:17:37;13.18;97.30
66343;DHT22;53144;51.524;5.080;2023-08-08T05:20:02;13.30;97.05
66343;DHT22;53144;51.524;5.080;2023-08-08T05:22:29;13.31;97.00
66343;DHT22;53144;51.524;5.080;2023-08-08T05:24:54;13.35;96.50
66343;DHT22;53144;51.524;5.080;2023-08-08T05:27:19;13.41;96.88
66343;DHT22;53144;51.524;5.080;2023-08-08T05:29:45;13.45;96.76
66343;DHT22;53144;51.524;5.080;2023-08-08T05:32:10;13.45;96.64
66343;DHT22;53144;51.524;5.080;2023-08-08T05:34:35;13.57;96.54
66343;DHT22;53144;51.524;5.080;2023-08-08T05:37:01;13.61;95.84
66343;DHT22;53144;51.524;5.080;2023-08-08T05:39:26;13.69;95.55
66343;DHT22;53144;51.524;5.080;2023-08-08T05:41:52;13.69;95.61
66343;DHT22;53144;51.524;5.080;2023-08-08T05:44:17;13.62;95.82
66343;DHT22;53144;51.524;5.080;2023-08-08T05:46:43;13.68;95.82
66343;DHT22;53144;51.524;5.080;2023-08-08T05:49:08;13.80;95.73
66343;DHT22;53144;51.524;5.080;2023-08-08T05:51:34;13.86;95.22
66343;DHT22;53144;51.524;5.080;2023-08-08T05:53:59;13.96;95.30
66343;DHT22;53144;51.524;5.080;2023-08-08T05:56:24;13.99;95.25
66343;DHT22;53144;51.524;5.080;2023-08-08T05:58:50;14.00;95.10
66343;DHT22;53144;51.524;5.080;2023-08-08T06:01:15;14.03;94.79
66343;DHT22;53144;51.524;5.080;2023-08-08T06:03:40;14.06;94.83
66343;DHT22;53144;51.524;5.080;2023-08-08T06:06:07;14.06;94.63
66343;DHT22;53144;51.524;5.080;2023-08-08T06:08:33;14.20;94.50
66343;DHT22;53144;51.524;5.080;2023-08-08T06:10:58;14.30;94.44
66343;DHT22;53144;51.524;5.080;2023-08-08T06:13:24;14.47;93.87
66343;DHT22;53144;51.524;5.080;2023-08-08T06:15:49;14.57;93.60
66343;DHT22;53144;51.524;5.080;2023-08-08T06:18:14;14.72;93.13
66343;DHT22;53144;51.524;5.080;2023-08-08T06:20:40;14.75;93.01
66343;DHT22;53144;51.524;5.080;2023-08-08T06:23:06;14.75;92.79
66343;DHT22;53144;51.524;5.080;2023-08-08T06:25:31;14.77;92.99
66343;DHT22;53144;51.524;5.080;2023-08-08T06:27:57;14.79;92.73
66343;DHT22;53144;51.524;5.080;2023-08-08T06:30:22;14.88;92.13
66343;DHT22;53144;51.524;5.080;2023-08-08T06:32:48;14.89;92.33
66343;DHT22;53144;51.524;5.080;2023-08-08T06:35:13;15.09;92.41
66343;DHT22;53144;51.524;5.080;2023-08-08T06:37:42;15.10;91.28
66343;DHT22;53144;51.524;5.080;2023-08-08T06:40:08;15.20;91.93
66343;DHT22;53144;51.524;5.080;2023-08-08T06:42:34;15.33;91.30
66343;DHT22;53144;51.524;5.080;2023-08-08T06:44:59;15.39;91.09
66343;DHT22;53144;51.524;5.080;2023-08-08T06:47:25;15.51;91.18
66343;DHT22;53144;51.524;5.080;2023-08-08T06:49:50;15.49;91.06
66343;DHT22;53144;51.524;5.080;2023-08-08T06:52:16;15.57;90.65
66343;DHT22;53144;51.524;5.080;2023-08-08T06:54:41;15.70;89.16
66343;DHT22;53144;51.524;5.080;2023-08-08T06:57:06;15.88;88.00
66343;DHT22;53144;51.524;5.080;2023-08-08T06:59:32;15.90;88.58
66343;DHT22;53144;51.524;5.080;2023-08-08T07:01:57;15.80;88.64
66343;DHT22;53144;51.524;5.080;2023-08-08T07:04:23;15.85;88.12
66343;DHT22;53144;51.524;5.080;2023-08-08T07:06:48;15.80;88.31
66343;DHT22;53144;51.524;5.080;2023-08-08T07:09:14;15.91;87.80
66343;DHT22;53144;51.524;5.080;2023-08-08T07:11:40;15.97;88.28
66343;DHT22;53144;51.524;5.080;2023-08-08T07:14:05;16.05;87.36
66343;DHT22;53144;51.524;5.080;2023-08-08T07:16:31;15.91;87.16
66343;DHT22;53144;51.524;5.080;2023-08-08T07:18:56;15.94;87.94
66343;DHT22;53144;51.524;5.080;2023-08-08T07:21:22;16.02;87.47
66343;DHT22;53144;51.524;5.080;2023-08-08T07:23:47;15.94;87.38
66343;DHT22;53144;51.524;5.080;2023-08-08T07:26:13;16.01;86.94
66343;DHT22;53144;51.524;5.080;2023-08-08T07:28:38;16.14;87.21
66343;DHT22;53144;51.524;5.080;2023-08-08T07:31:04;16.18;86.79
66343;DHT22;53144;51.524;5.080;2023-08-08T07:33:29;16.26;87.18
66343;DHT22;53144;51.524;5.080;2023-08-08T07:35:55;16.41;87.68
66343;DHT22;53144;51.524;5.080;2023-08-08T07:38:20;16.36;86.80
66343;DHT22;53144;51.524;5.080;2023-08-08T07:40:46;16.43;85.79
66343;DHT22;53144;51.524;5.080;2023-08-08T07:43:12;16.49;86.06
66343;DHT22;53144;51.524;5.080;2023-08-08T07:45:37;16.35;85.60
66343;DHT22;53144;51.524;5.080;2023-08-08T07:48:04;16.43;85.77
66343;DHT22;53144;51.524;5.080;2023-08-08T07:50:30;16.49;86.79
66343;DHT22;53144;51.524;5.080;2023-08-08T07:52:55;16.60;86.12
66343;DHT22;53144;51.524;5.080;2023-08-08T07:55:21;16.51;85.05
66343;DHT22;53144;51.524;5.080;2023-08-08T07:57:46;16.57;84.44
66343;DHT22;53144;51.524;5.080;2023-08-08T08:00:13;16.64;84.54
66343;DHT22;53144;51.524;5.080;2023-08-08T08:02:41;16.77;84.77
66343;DHT22;53144;51.524;5.080;2023-08-08T08:05:08;16.81;83.87
66343;DHT22;53144;51.524;5.080;2023-08-08T08:07:34;16.94;84.04
66343;DHT22;53144;51.524;5.080;2023-08-08T08:10:00;16.64;84.05
66343;DHT22;53144;51.524;5.080;2023-08-08T08:12:26;16.72;83.61
66343;DHT22;53144;51.524;5.080;2023-08-08T08:14:52;16.55;83.76
66343;DHT22;53144;51.524;5.080;2023-08-08T08:17:17;16.72;84.38
66343;DHT22;53144;51.524;5.080;2023-08-08T08:19:42;16.95;84.96
66343;DHT22;53144;51.524;5.080;2023-08-08T08:22:08;17.01;83.76
66343;DHT22;53144;51.524;5.080;2023-08-08T08:24:33;17.22;83.50
66343;DHT22;53144;51.524;5.080;2023-08-08T08:26:59;17.34;82.67
66343;DHT22;53144;51.524;5.080;2023-08-08T08:29:24;17.17;81.37
66343;DHT22;53144;51.524;5.080;2023-08-08T08:31:50;17.22;82.32
66343;DHT22;53144;51.524;5.080;2023-08-08T08:34:15;17.24;82.65
66343;DHT22;53144;51.524;5.080;2023-08-08T08:36:40;17.14;80.79
66343;DHT22;53144;51.524;5.080;2023-08-08T08:39:06;16.99;81.34
66343;DHT22;53144;51.524;5.080;2023-08-08T08:41:32;16.93;81.51
66343;DHT22;53144;51.524;5.080;2023-08-08T08:44:01;16.80;82.16
66343;DHT22;53144;51.524;5.080;2023-08-08T08:46:26;16.67;82.38
66343;DHT22;53144;51.524;5.080;2023-08-08T08:48:54;16.73;82.08
66343;DHT22;53144;51.524;5.080;2023-08-08T08:51:21;16.72;82.65
66343;DHT22;53144;51.524;5.080;2023-08-08T08:53:47;16.70;83.29
66343;DHT22;53144;51.524;5.080;2023-08-08T08:56:14;16.57;83.13
66343;DHT22;53144;51.524;5.080;2023-08-08T08:58:40;16.53;82.69
66343;DHT22;53144;51.524;5.080;2023-08-08T09:01:07;16.52;83.01
66343;DHT22;53144;51.524;5.080;2023-08-08T09:03:33;16.57;82.78
66343;DHT22;53144;51.524;5.080;2023-08-08T09:06:00;16.67;81.10
66343;DHT22;53144;51.524;5.080;2023-08-08T09:08:26;16.66;81.05
66343;DHT22;53144;51.524;5.080;2023-08-08T09:10:51;16.62;80.94
66343;DHT22;53144;51.524;5.080;2023-08-08T09:13:17;16.80;80.83
66343;DHT22;53144;51.524;5.080;2023-08-08T09:15:42;17.03;81.07
66343;DHT22;53144;51.524;5.080;2023-08-08T09:18:08;17.10;80.94
66343;DHT22;53144;51.524;5.080;2023-08-08T09:20:33;17.39;80.62
66343;DHT22;53144;51.524;5.080;2023-08-08T09:22:59;17.51;80.39
66343;DHT22;53144;51.524;5.080;2023-08-08T09:25:26;17.52;79.62
66343;DHT22;53144;51.524;5.080;2023-08-08T09:27:52;17.52;79.10
66343;DHT22;53144;51.524;5.080;2023-08-08T09:30:18;17.61;79.44
66343;DHT22;53144;51.524;5.080;2023-08-08T09:32:45;17.55;77.99
66343;DHT22;53144;51.524;5.080;2023-08-08T09:35:10;17.78;78.61
66343;DHT22;53144;51.524;5.080;2023-08-08T09:37:37;18.20;76.25
66343;DHT22;53144;51.524;5.080;2023-08-08T09:40:04;18.43;77.21
66343;DHT22;53144;51.524;5.080;2023-08-08T09:42:30;18.23;76.42
66343;DHT22;53144;51.524;5.080;2023-08-08T09:44:57;18.33;76.96
66343;DHT22;53144;51.524;5.080;2023-08-08T09:47:23;18.51;77.01
66343;DHT22;53144;51.524;5.080;2023-08-08T09:49:48;18.58;75.89
66343;DHT22;53144;51.524;5.080;2023-08-08T09:52:14;18.24;75.06
66343;DHT22;53144;51.524;5.080;2023-08-08T09:54:41;18.27;75.29
66343;DHT22;53144;51.524;5.080;2023-08-08T09:57:07;18.34;76.34
66343;DHT22;53144;51.524;5.080;2023-08-08T09:59:34;18.20;74.76
66343;DHT22;53144;51.524;5.080;2023-08-08T10:02:00;18.21;75.17
66343;DHT22;53144;51.524;5.080;2023-08-08T10:04:26;18.58;74.46
66343;DHT22;53144;51.524;5.080;2023-08-08T10:06:52;18.48;74.50
66343;DHT22;53144;51.524;5.080;2023-08-08T10:09:17;18.52;74.93
66343;DHT22;53144;51.524;5.080;2023-08-08T10:11:43;18.64;74.65
66343;DHT22;53144;51.524;5.080;2023-08-08T10:14:10;18.36;73.83
66343;DHT22;53144;51.524;5.080;2023-08-08T10:16:42;18.06;75.41
66343;DHT22;53144;51.524;5.080;2023-08-08T10:19:09;17.63;77.13
66343;DHT22;53144;51.524;5.080;2023-08-08T10:21:36;17.42;78.36
66343;DHT22;53144;51.524;5.080;2023-08-08T10:24:03;17.35;79.84
66343;DHT22;53144;51.524;5.080;2023-08-08T10:26:29;17.34;79.71
66343;DHT22;53144;51.524;5.080;2023-08-08T10:28:56;17.42;79.30
66343;DHT22;53144;51.524;5.080;2023-08-08T10:31:22;17.97;78.07
66343;DHT22;53144;51.524;5.080;2023-08-08T10:33:47;18.67;75.34
66343;DHT22;53144;51.524;5.080;2023-08-08T10:36:13;19.34;76.24
66343;DHT22;53144;51.524;5.080;2023-08-08T10:38:43;19.71;74.92
66343;DHT22;53144;51.524;5.080;2023-08-08T10:41:11;19.89;74.97
66343;DHT22;53144;51.524;5.080;2023-08-08T10:43:37;19.43;71.68
66343;DHT22;53144;51.524;5.080;2023-08-08T10:46:04;18.68;73.33
66343;DHT22;53144;51.524;5.080;2023-08-08T10:48:30;18.75;72.95
66343;DHT22;53144;51.524;5.080;2023-08-08T10:50:59;18.85;72.62
66343;DHT22;53144;51.524;5.080;2023-08-08T10:53:26;18.81;72.68
66343;DHT22;53144;51.524;5.080;2023-08-08T10:56:02;18.61;73.17
66343;DHT22;53144;51.524;5.080;2023-08-08T10:58:38;18.02;72.15
66343;DHT22;53144;51.524;5.080;2023-08-08T11:01:05;18.09;74.41
66343;DHT22;53144;51.524;5.080;2023-08-08T11:03:34;18.09;74.18
66343;DHT22;53144;51.524;5.080;2023-08-08T11:06:01;17.72;74.79
66343;DHT22;53144;51.524;5.080;2023-08-08T11:08:29;17.68;74.74
66343;DHT22;53144;51.524;5.080;2023-08-08T11:10:56;17.69;74.72
66343;DHT22;53144;51.524;5.080;2023-08-08T11:13:21;17.71;74.25
66343;DHT22;53144;51.524;5.080;2023-08-08T11:15:47;17.68;75.25
66343;DHT22;53144;51.524;5.080;2023-08-08T11:18:13;18.13;75.18
66343;DHT22;53144;51.524;5.080;2023-08-08T11:20:38;19.39;72.44
66343;DHT22;53144;51.524;5.080;2023-08-08T11:23:05;20.09;69.83
66343;DHT22;53144;51.524;5.080;2023-08-08T11:25:35;20.37;68.45
66343;DHT22;53144;51.524;5.080;2023-08-08T11:28:01;19.24;70.64
66343;DHT22;53144;51.524;5.080;2023-08-08T11:30:30;18.81;70.75
66343;DHT22;53144;51.524;5.080;2023-08-08T11:32:55;18.84;72.10
66343;DHT22;53144;51.524;5.080;2023-08-08T11:35:23;18.75;71.53
66343;DHT22;53144;51.524;5.080;2023-08-08T11:37:50;19.40;69.07
66343;DHT22;53144;51.524;5.080;2023-08-08T11:40:17;19.78;66.49
66343;DHT22;53144;51.524;5.080;2023-08-08T11:42:43;19.84;63.70
66343;DHT22;53144;51.524;5.080;2023-08-08T11:45:11;19.31;67.08
66343;DHT22;53144;51.524;5.080;2023-08-08T11:47:38;20.30;64.84
66343;DHT22;53144;51.524;5.080;2023-08-08T11:50:05;20.62;64.34
66343;DHT22;53144;51.524;5.080;2023-08-08T11:52:32;19.84;64.97
66343;DHT22;53144;51.524;5.080;2023-08-08T11:55:00;20.02;67.15
66343;DHT22;53144;51.524;5.080;2023-08-08T11:57:26;21.00;62.90
66343;DHT22;53144;51.524;5.080;2023-08-08T11:59:56;21.12;63.45
66343;DHT22;53144;51.524;5.080;2023-08-08T12:02:23;20.04;63.99
66343;DHT22;53144;51.524;5.080;2023-08-08T12:04:48;21.72;61.81
66343;DHT22;53144;51.524;5.080;2023-08-08T12:07:14;21.14;57.96
66343;DHT22;53144;51.524;5.080;2023-08-08T12:09:39;21.94;57.90
66343;DHT22;53144;51.524;5.080;2023-08-08T12:12:06;22.40;58.91
66343;DHT22;53144;51.524;5.080;2023-08-08T12:14:38;21.34;56.45
66343;DHT22;53144;51.524;5.080;2023-08-08T12:17:04;21.63;57.60
66343;DHT22;53144;51.524;5.080;2023-08-08T12:19:30;22.88;55.81
66343;DHT22;53144;51.524;5.080;2023-08-08T12:21:55;23.15;55.67
66343;DHT22;53144;51.524;5.080;2023-08-08T12:24:21;23.95;54.46
66343;DHT22;53144;51.524;5.080;2023-08-08T12:26:46;23.20;55.63
66343;DHT22;53144;51.524;5.080;2023-08-08T12:29:12;22.78;55.41
66343;DHT22;53144;51.524;5.080;2023-08-08T12:31:38;21.45;58.79
66343;DHT22;53144;51.524;5.080;2023-08-08T12:34:04;22.02;59.33
66343;DHT22;53144;51.524;5.080;2023-08-08T12:36:30;21.11;59.07
66343;DHT22;53144;51.524;5.080;2023-08-08T12:38:55;20.73;60.84
66343;DHT22;53144;51.524;5.080;2023-08-08T12:41:21;20.94;59.54
66343;DHT22;53144;51.524;5.080;2023-08-08T12:43:47;21.62;61.76
66343;DHT22;53144;51.524;5.080;2023-08-08T12:46:12;21.17;61.61
66343;DHT22;53144;51.524;5.080;2023-08-08T12:48:38;22.68;58.99
66343;DHT22;53144;51.524;5.080;2023-08-08T12:51:03;21.45;58.13
66343;DHT22;53144;51.524;5.080;2023-08-08T12:53:30;20.63;58.98
66343;DHT22;53144;51.524;5.080;2023-08-08T12:55:55;20.15;61.43
66343;DHT22;53144;51.524;5.080;2023-08-08T12:58:21;20.79;60.24
66343;DHT22;53144;51.524;5.080;2023-08-08T13:00:46;20.39;61.83
66343;DHT22;53144;51.524;5.080;2023-08-08T13:03:11;20.01;62.15
66343;DHT22;53144;51.524;5.080;2023-08-08T13:05:38;20.72;61.45
66343;DHT22;53144;51.524;5.080;2023-08-08T13:08:04;20.91;59.90
66343;DHT22;53144;51.524;5.080;2023-08-08T13:10:29;21.18;61.74
66343;DHT22;53144;51.524;5.080;2023-08-08T13:12:55;21.76;58.78
66343;DHT22;53144;51.524;5.080;2023-08-08T13:15:21;22.69;55.21
66343;DHT22;53144;51.524;5.080;2023-08-08T13:17:46;22.44;56.98
66343;DHT22;53144;51.524;5.080;2023-08-08T13:20:12;21.76;56.51
66343;DHT22;53144;51.524;5.080;2023-08-08T13:22:38;21.65;58.56
66343;DHT22;53144;51.524;5.080;2023-08-08T13:25:05;22.21;57.80
66343;DHT22;53144;51.524;5.080;2023-08-08T13:27:31;20.90;58.38
66343;DHT22;53144;51.524;5.080;2023-08-08T13:29:57;21.30;57.76
66343;DHT22;53144;51.524;5.080;2023-08-08T13:32:23;20.95;58.88
66343;DHT22;53144;51.524;5.080;2023-08-08T13:34:48;20.98;61.10
66343;DHT22;53144;51.524;5.080;2023-08-08T13:37:15;21.07;60.75
66343;DHT22;53144;51.524;5.080;2023-08-08T13:39:40;20.74;58.90
66343;DHT22;53144;51.524;5.080;2023-08-08T13:42:06;20.35;60.58
66343;DHT22;53144;51.524;5.080;2023-08-08T13:44:32;20.28;60.43
66343;DHT22;53144;51.524;5.080;2023-08-08T13:46:57;20.28;62.53
66343;DHT22;53144;51.524;5.080;2023-08-08T13:49:23;19.92;61.07
66343;DHT22;53144;51.524;5.080;2023-08-08T13:51:52;20.42;60.63
66343;DHT22;53144;51.524;5.080;2023-08-08T13:54:19;20.86;58.24
66343;DHT22;53144;51.524;5.080;2023-08-08T13:56:44;21.04;57.31
66343;DHT22;53144;51.524;5.080;2023-08-08T13:59:09;20.84;57.64
66343;DHT22;53144;51.524;5.080;2023-08-08T14:01:35;20.77;57.64
66343;DHT22;53144;51.524;5.080;2023-08-08T14:04:01;20.76;58.81
66343;DHT22;53144;51.524;5.080;2023-08-08T14:06:27;20.74;60.21
66343;DHT22;53144;51.524;5.080;2023-08-08T14:08:52;20.65;59.74
66343;DHT22;53144;51.524;5.080;2023-08-08T14:11:18;20.52;58.79
66343;DHT22;53144;51.524;5.080;2023-08-08T14:13:43;20.25;58.69
66343;DHT22;53144;51.524;5.080;2023-08-08T14:16:09;20.36;59.42
66343;DHT22;53144;51.524;5.080;2023-08-08T14:18:34;20.65;58.77
66343;DHT22;53144;51.524;5.080;2023-08-08T14:21:00;20.53;59.96
66343;DHT22;53144;51.524;5.080;2023-08-08T14:23:27;20.21;60.98
66343;DHT22;53144;51.524;5.080;2023-08-08T14:25:53;20.42;62.45
66343;DHT22;53144;51.524;5.080;2023-08-08T14:28:18;20.60;60.86
66343;DHT22;53144;51.524;5.080;2023-08-08T14:30:43;20.40;62.42
66343;DHT22;53144;51.524;5.080;2023-08-08T14:33:09;20.56;62.21
66343;DHT22;53144;51.524;5.080;2023-08-08T14:35:34;20.45;62.45
66343;DHT22;53144;51.524;5.080;2023-08-08T14:38:00;20.24;62.71
66343;DHT22;53144;51.524;5.080;2023-08-08T14:40:26;20.63;62.84
66343;DHT22;53144;51.524;5.080;2023-08-08T14:42:51;20.50;64.99
66343;DHT22;53144;51.524;5.080;2023-08-08T14:45:17;20.43;63.05
66343;DHT22;53144;51.524;5.080;2023-08-08T14:47:43;20.05;64.09
66343;DHT22;53144;51.524;5.080;2023-08-08T14:50:08;19.74;64.67
66343;DHT22;53144;51.524;5.080;2023-08-08T14:52:34;19.73;65.42
66343;DHT22;53144;51.524;5.080;2023-08-08T14:55:01;19.51;66.53
66343;DHT22;53144;51.524;5.080;2023-08-08T14:57:26;19.61;67.55
66343;DHT22;53144;51.524;5.080;2023-08-08T14:59:52;19.51;66.69
66343;DHT22;53144;51.524;5.080;2023-08-08T15:02:17;19.27;66.27
66343;DHT22;53144;51.524;5.080;2023-08-08T15:04:43;19.57;66.13
66343;DHT22;53144;51.524;5.080;2023-08-08T15:07:08;19.56;66.51
66343;DHT22;53144;51.524;5.080;2023-08-08T15:09:34;19.68;67.05
66343;DHT22;53144;51.524;5.080;2023-08-08T15:11:59;19.57;66.99
66343;DHT22;53144;51.524;5.080;2023-08-08T15:14:24;19.79;66.89
66343;DHT22;53144;51.524;5.080;2023-08-08T15:16:52;19.79;67.13
66343;DHT22;53144;51.524;5.080;2023-08-08T15:19:18;19.71;66.68
66343;DHT22;53144;51.524;5.080;2023-08-08T15:21:44;19.63;67.82